Weather History for Silver City, NM

Change the Weather History Date:

Saturday, November 3, 2012

  Actual Average (KDMN) Record (KDMN)
Temperature  
Mean Temperature 58 °F 55 °F  
Max Temperature 71 °F 71 °F 81 °F (2001)
Min Temperature 44 °F 38 °F 26 °F (1951)
Degree Days  
Heating Degree Days 8    
Growing Degree Days 8 (Base 50)    
Moisture  
Dew Point 26 °F    
Average Humidity 33    
Maximum Humidity 49    
Minimum Humidity 19    
Precipitation  
Precipitation 0.00 in 0.02 in 0.44 in (1986)
Month to date precipitation 0.07  
Year to date precipitation 10.02  
Sea Level Pressure  
Sea Level Pressure 30.17 in    
Wind  
Wind Speed 8 mph (NW)    
Max Wind Speed 14 mph    
Max Gust Speed 22 mph    
Visibility 10 miles    
Events      
T = Trace of Precipitation, MM = Missing Value Source: NWS Daily Summary

Daily Weather History Graph

Daily Weather History Graph

Search for Another Location

Airport:

Trip Planner

Search our weather history database for the weather conditions in past years. The results will help you decide how hot, cold, wet, or windy it might be!

Date:

Astronomy

Nov. 03, 2012 Rise Set
Actual Time 7:32 AM MDT 6:19 PM MDT
Civil Twilight 7:06 AM MDT 6:45 PM MDT
Nautical Twilight 6:37 AM MDT 7:14 PM MDT
Astronomical Twilight 6:08 AM MDT 7:43 PM MDT
Moon 10:08 PM MDT (11/3) 11:33 AM MDT (11/3)
Length of Visible Light 11h 38m
Length of Day
10h 47m
Waning Gibbous, 80% of the Moon is Illuminated
Nov 3
Waning Gibbous
Nov 6
Last Quarter
Nov 13
New
Nov 20
First Quarter
Nov 28
Full

Hourly Weather History & Observations

Time (MDT) Temp. Windchill Dew Point Humidity Pressure Visibility Wind Dir Wind Speed Gust Speed Precip Events Conditions
12:15 AM 48.2 °F - 26.6 °F 43% 30.12 in 10.0 mi NNW 6.9 mph - N/A   Clear
12:35 AM 48.2 °F - 26.6 °F 43% 30.12 in 10.0 mi WNW 6.9 mph - N/A   Clear
12:55 AM 50.0 °F - 26.6 °F 40% 30.12 in 10.0 mi WNW 6.9 mph - N/A   Clear
1:15 AM 48.2 °F - 26.6 °F 43% 30.13 in 10.0 mi SSW 8.1 mph - N/A   Clear
1:35 AM 50.0 °F - 26.6 °F 40% 30.13 in 10.0 mi NW 4.6 mph - N/A   Clear
1:55 AM 48.2 °F - 26.6 °F 43% 30.13 in 10.0 mi NNW 8.1 mph - N/A   Clear
2:15 AM 46.4 °F 41.5 °F 26.6 °F 46% 30.13 in 10.0 mi North 10.4 mph - N/A   Clear
2:35 AM 44.6 °F 40.2 °F 26.6 °F 49% 30.13 in 10.0 mi North 8.1 mph - N/A   Clear
2:55 AM 46.4 °F 41.9 °F 26.6 °F 46% 30.14 in 10.0 mi NNE 9.2 mph - N/A   Clear
3:15 AM 46.4 °F 43.5 °F 26.6 °F 46% 30.14 in 10.0 mi North 5.8 mph - N/A   Clear
3:35 AM 46.4 °F 43.5 °F 26.6 °F 46% 30.14 in 10.0 mi North 5.8 mph - N/A   Clear
3:55 AM 44.6 °F 39.2 °F 26.6 °F 49% 30.14 in 10.0 mi NW 10.4 mph - N/A   Clear
4:15 AM 44.6 °F 39.2 °F 26.6 °F 49% 30.14 in 10.0 mi North 10.4 mph - N/A   Clear
4:35 AM 44.6 °F 38.8 °F 26.6 °F 49% 30.14 in 10.0 mi North 11.5 mph - N/A   Clear
4:55 AM 44.6 °F 39.2 °F 26.6 °F 49% 30.14 in 10.0 mi North 10.4 mph - N/A   Clear
5:15 AM 44.6 °F 39.7 °F 26.6 °F 49% 30.15 in 10.0 mi North 9.2 mph - N/A   Clear
5:35 AM 46.4 °F 41.5 °F 26.6 °F 46% 30.15 in 10.0 mi North 10.4 mph - N/A   Clear
5:55 AM 46.4 °F 41.5 °F 26.6 °F 46% 30.15 in 10.0 mi North 10.4 mph - N/A   Clear
6:15 AM 46.4 °F 41.5 °F 26.6 °F 46% 30.16 in 10.0 mi North 10.4 mph - N/A   Clear
6:35 AM 46.4 °F 41.5 °F 26.6 °F 46% 30.16 in 10.0 mi North 10.4 mph - N/A   Clear
6:55 AM 46.4 °F 41.9 °F 26.6 °F 46% 30.17 in 10.0 mi North 9.2 mph - N/A   Scattered Clouds
7:15 AM 46.4 °F 41.5 °F 26.6 °F 46% 30.17 in 10.0 mi North 10.4 mph - N/A   Partly Cloudy
7:35 AM 46.4 °F 41.5 °F 26.6 °F 46% 30.18 in 10.0 mi North 10.4 mph - N/A   Clear
7:55 AM 46.4 °F 41.9 °F 26.6 °F 46% 30.18 in 10.0 mi North 9.2 mph - N/A   Clear
8:15 AM 48.2 °F - 28.4 °F 46% 30.19 in 10.0 mi North 8.1 mph - N/A   Clear
8:35 AM 51.8 °F - 28.4 °F 41% 30.19 in 10.0 mi North 8.1 mph - N/A   Clear
8:55 AM 55.4 °F - 28.4 °F 36% 30.20 in 10.0 mi North 4.6 mph - N/A   Clear
9:15 AM 60.8 °F - 30.2 °F 31% 30.20 in 10.0 mi Calm Calm - N/A   Clear
9:35 AM 60.8 °F - 30.2 °F 31% 30.21 in 10.0 mi SSE 3.5 mph - N/A   Clear
9:55 AM 64.4 °F - 32.0 °F 30% 30.21 in 10.0 mi South 3.5 mph - N/A   Clear
10:15 AM 64.4 °F - 28.4 °F 26% 30.21 in 10.0 mi WNW 3.5 mph - N/A   Clear
10:35 AM 66.2 °F - 28.4 °F 24% 30.21 in 10.0 mi NNW 4.6 mph - N/A   Clear
10:55 AM 66.2 °F - 28.4 °F 24% 30.21 in 10.0 mi West 3.5 mph - N/A   Clear
11:15 AM 68.0 °F - 28.4 °F 23% 30.21 in 10.0 mi SW 4.6 mph - N/A   Scattered Clouds
11:35 AM 68.0 °F - 28.4 °F 23% 30.21 in 10.0 mi Calm Calm - N/A   Mostly Cloudy
11:55 AM 69.8 °F - 28.4 °F 21% 30.21 in 10.0 mi SW 4.6 mph - N/A   Mostly Cloudy
12:15 PM 69.8 °F - 28.4 °F 21% 30.20 in 10.0 mi SSE 8.1 mph - N/A   Mostly Cloudy
12:35 PM 69.8 °F - 28.4 °F 21% 30.20 in 10.0 mi South 4.6 mph 16.1 mph N/A   Mostly Cloudy
12:55 PM 69.8 °F - 28.4 °F 21% 30.19 in 10.0 mi South 8.1 mph 16.1 mph N/A   Partly Cloudy
1:15 PM 68.0 °F - 28.4 °F 23% 30.18 in 10.0 mi South 12.7 mph 16.1 mph N/A   Partly Cloudy
1:35 PM 71.6 °F - 28.4 °F 20% 30.17 in 10.0 mi South 8.1 mph 21.9 mph N/A   Mostly Cloudy
1:55 PM 69.8 °F - 28.4 °F 21% 30.17 in 10.0 mi Calm Calm - N/A   Scattered Clouds
2:15 PM 71.6 °F - 28.4 °F 20% 30.16 in 10.0 mi SSW 9.2 mph 17.3 mph N/A   Mostly Cloudy
2:35 PM 71.6 °F - 28.4 °F 20% 30.16 in 10.0 mi South 10.4 mph 20.7 mph N/A   Mostly Cloudy
2:55 PM 71.6 °F - 28.4 °F 20% 30.15 in 10.0 mi SW 5.8 mph 16.1 mph N/A   Mostly Cloudy
3:15 PM 71.6 °F - 28.4 °F 20% 30.15 in 10.0 mi SW 5.8 mph - N/A   Overcast
3:35 PM 71.6 °F - 28.4 °F 20% 30.15 in 10.0 mi South 11.5 mph - N/A   Overcast
3:55 PM 71.6 °F - 28.4 °F 20% 30.15 in 10.0 mi SSW 8.1 mph - N/A   Mostly Cloudy
4:15 PM 69.8 °F - 26.6 °F 20% 30.15 in 10.0 mi NW 5.8 mph - N/A   Mostly Cloudy
4:35 PM 71.6 °F - 26.6 °F 19% 30.15 in 10.0 mi South 4.6 mph - N/A   Mostly Cloudy
4:55 PM 71.6 °F - 26.6 °F 19% 30.15 in 10.0 mi SSW 6.9 mph - N/A   Mostly Cloudy
5:15 PM 69.8 °F - 26.6 °F 20% 30.15 in 10.0 mi SSW 13.8 mph - N/A   Scattered Clouds
5:35 PM 68.0 °F - 24.8 °F 20% 30.16 in 10.0 mi SW 12.7 mph 18.4 mph N/A   Partly Cloudy
5:55 PM 68.0 °F - 24.8 °F 20% 30.16 in 10.0 mi WSW 12.7 mph 17.3 mph N/A   Partly Cloudy
6:15 PM 66.2 °F - 23.0 °F 19% 30.17 in 10.0 mi WSW 8.1 mph - N/A   Partly Cloudy
6:35 PM 64.4 °F - 23.0 °F 21% 30.17 in 10.0 mi West 8.1 mph - N/A   Clear
6:55 PM 62.6 °F - 23.0 °F 22% 30.18 in 10.0 mi West 5.8 mph - N/A   Clear
7:15 PM 55.4 °F - 19.4 °F 25% 30.18 in 10.0 mi WNW 5.8 mph - N/A   Clear
7:35 PM 50.0 °F - 19.4 °F 30% 30.19 in 10.0 mi NW 9.2 mph - N/A   Clear
7:55 PM 50.0 °F - 19.4 °F 30% 30.19 in 10.0 mi NNW 10.4 mph - N/A   Clear
8:15 PM 50.0 °F - 19.4 °F 30% 30.20 in 10.0 mi North 10.4 mph - N/A   Clear
8:35 PM 50.0 °F - 19.4 °F 30% 30.20 in 10.0 mi NNW 9.2 mph - N/A   Clear
8:55 PM 48.2 °F - 19.4 °F 32% 30.20 in 10.0 mi North 8.1 mph - N/A   Clear
9:15 PM 46.4 °F 41.5 °F 19.4 °F 34% 30.20 in 10.0 mi North 10.4 mph - N/A   Clear
9:35 PM 48.2 °F - 19.4 °F 32% 30.21 in 10.0 mi North 10.4 mph - N/A   Clear
9:55 PM 48.2 °F - 19.4 °F 32% 30.21 in 10.0 mi North 9.2 mph - N/A   Clear
10:15 PM 48.2 °F - 19.4 °F 32% 30.22 in 10.0 mi North 11.5 mph - N/A   Clear
10:35 PM 48.2 °F - 19.4 °F 32% 30.22 in 10.0 mi North 10.4 mph - N/A   Clear
10:55 PM 48.2 °F - 19.4 °F 32% 30.22 in 10.0 mi North 10.4 mph - N/A   Clear
11:15 PM 48.2 °F - 19.4 °F 32% 30.22 in 10.0 mi North 9.2 mph - N/A   Clear
11:35 PM 46.4 °F 41.5 °F 19.4 °F 34% 30.22 in 10.0 mi North 10.4 mph - N/A   Clear
11:55 PM 46.4 °F 41.9 °F 19.4 °F 34% 30.23 in 10.0 mi North 9.2 mph - N/A   Clear